Karnack, Texas
Current Conditions -  °F | °C
As of 7:55 AM on Sunday 25 Jan 2015 (Local Time) from KASL Reporting Station
Clear Clear  
Wind Chill: 38°   Ceiling: Unl
Heat Index: 38°   Visibility: 10mi
Dew Point: 35°   Wind: 3mph
Humidity: 91%   Direction: 160°SSE
Pressure: 29.93"   Gusts: NA
Location:  32.67°N, 94.17°W
Report Text: KASL 251355Z AUTO 16003KT 10SM CLR 03/02 A2993 RMK AO1 T00320019
Loading
Personal Weather Stations






























Interactive Weather Map New forecast layout! Learn more

10-Day Weather Forecast

Advertisements
Track Severe Weather on mobile